ITY718 LDSP-LFMN
Flight info
| Callsign | ITY718 |
|---|---|
| Flight time | 1h 15m |
| Altitude | 34000 |
| Route | TORPO DCT IBRID DCT TORTU DCT KERIT |
| Aircraft | A320/M-SDE3FGHIRWY/LB1 |
Departure
| Time | 2026-05-07 19:17 |
|---|---|
| Airport | Split Saint Jerome Airport (LDSP) |
Arrival
| Time | 2026-05-07 20:32 |
|---|---|
| Airport | Nice-Côte d'Azur Airport (LFMN) |
| Time | Latitude | Longitude | Altitude | Speed | Heading |
|---|---|---|---|---|---|
| 2026-05-07 18:54 | 43.53691 | 16.29808 | 81 ft | 0 kts | 117° |
| 2026-05-07 19:11 | 43.53692 | 16.29816 | 58 ft | 3 kts | 87° |
| 2026-05-07 19:11 | 43.53711 | 16.29834 | 83 ft | 3 kts | 10° |
| 2026-05-07 19:11 | 43.53726 | 16.29827 | 82 ft | 2 kts | 334° |
| 2026-05-07 19:11 | 43.53736 | 16.29819 | 85 ft | 2 kts | 331° |
| 2026-05-07 19:12 | 43.53744 | 16.29784 | 84 ft | 10 kts | 260° |
| 2026-05-07 19:12 | 43.53706 | 16.29703 | 90 ft | 7 kts | 232° |
| 2026-05-07 19:12 | 43.53679 | 16.29654 | 86 ft | 6 kts | 235° |
| 2026-05-07 19:12 | 43.53663 | 16.29624 | 88 ft | 0 kts | 234° |
| 2026-05-07 19:13 | 43.53663 | 16.29622 | 88 ft | 1 kts | 250° |
| 2026-05-07 19:13 | 43.53664 | 16.29618 | 87 ft | 2 kts | 276° |
| 2026-05-07 19:13 | 43.53665 | 16.29616 | 87 ft | 0 kts | 277° |
| 2026-05-07 19:14 | 43.53685 | 16.29559 | 85 ft | 14 kts | 306° |
| 2026-05-07 19:14 | 43.53679 | 16.29414 | 85 ft | 18 kts | 243° |
| 2026-05-07 19:14 | 43.53588 | 16.29251 | 86 ft | 28 kts | 232° |
| 2026-05-07 19:15 | 43.53460 | 16.29023 | 83 ft | 32 kts | 233° |
| 2026-05-07 19:15 | 43.53322 | 16.28783 | 88 ft | 31 kts | 226° |
| 2026-05-07 19:15 | 43.53208 | 16.28597 | 89 ft | 13 kts | 260° |
| 2026-05-07 19:15 | 43.53250 | 16.28587 | 90 ft | 11 kts | 51° |
| 2026-05-07 19:16 | 43.53273 | 16.28702 | 88 ft | 17 kts | 40° |
| 2026-05-07 19:16 | 43.53494 | 16.29074 | 83 ft | 87 kts | 52° |
| 2026-05-07 19:16 | 43.53997 | 16.29976 | 81 ft | 147 kts | 52° |
| 2026-05-07 19:16 | 43.54646 | 16.31153 | 582 ft | 153 kts | 52° |
| 2026-05-07 19:17 | 43.55263 | 16.32346 | 1277 ft | 153 kts | 59° |
| 2026-05-07 19:17 | 43.55627 | 16.33784 | 1753 ft | 164 kts | 91° |
| 2026-05-07 19:17 | 43.55429 | 16.35327 | 2289 ft | 172 kts | 116° |
| 2026-05-07 19:17 | 43.54606 | 16.36592 | 2751 ft | 188 kts | 153° |
| 2026-05-07 19:18 | 43.53325 | 16.37004 | 3490 ft | 189 kts | 172° |
| 2026-05-07 19:18 | 43.52073 | 16.37388 | 4347 ft | 184 kts | 155° |
| 2026-05-07 19:18 | 43.50923 | 16.38177 | 5075 ft | 185 kts | 155° |
| 2026-05-07 19:18 | 43.49759 | 16.38967 | 5686 ft | 191 kts | 165° |
| 2026-05-07 19:19 | 43.48409 | 16.38852 | 5958 ft | 208 kts | 209° |
| 2026-05-07 19:19 | 43.47305 | 16.37429 | 6274 ft | 234 kts | 243° |
| 2026-05-07 19:19 | 43.46976 | 16.35159 | 6654 ft | 260 kts | 268° |
| 2026-05-07 19:19 | 43.47041 | 16.32625 | 7382 ft | 268 kts | 271° |
| 2026-05-07 19:20 | 43.47212 | 16.30068 | 8324 ft | 268 kts | 273° |
| 2026-05-07 19:20 | 43.47410 | 16.27481 | 9142 ft | 274 kts | 274° |
| 2026-05-07 19:20 | 43.47606 | 16.24846 | 10051 ft | 276 kts | 274° |
| 2026-05-07 19:20 | 43.47792 | 16.22129 | 10467 ft | 297 kts | 272° |
| 2026-05-07 19:21 | 43.47973 | 16.19184 | 10784 ft | 317 kts | 273° |
| 2026-05-07 19:21 | 43.48151 | 16.16104 | 11396 ft | 325 kts | 272° |
| 2026-05-07 19:21 | 43.48328 | 16.12982 | 12161 ft | 329 kts | 272° |
| 2026-05-07 19:21 | 43.48502 | 16.09823 | 12950 ft | 332 kts | 272° |
| 2026-05-07 19:22 | 43.48674 | 16.06667 | 13687 ft | 336 kts | 272° |
| 2026-05-07 19:22 | 43.48850 | 16.03443 | 14380 ft | 339 kts | 272° |
| 2026-05-07 19:22 | 43.49028 | 16.00189 | 15049 ft | 342 kts | 272° |
| 2026-05-07 19:22 | 43.49204 | 15.96904 | 15727 ft | 345 kts | 272° |
| 2026-05-07 19:23 | 43.49380 | 15.93596 | 16382 ft | 348 kts | 272° |
| 2026-05-07 19:23 | 43.49556 | 15.90258 | 17035 ft | 351 kts | 272° |
| 2026-05-07 19:23 | 43.49733 | 15.86899 | 17696 ft | 353 kts | 272° |
| 2026-05-07 19:23 | 43.49910 | 15.83507 | 18353 ft | 356 kts | 272° |
| 2026-05-07 19:24 | 43.50088 | 15.80083 | 18926 ft | 359 kts | 272° |
| 2026-05-07 19:24 | 43.50266 | 15.76644 | 19515 ft | 361 kts | 272° |
| 2026-05-07 19:24 | 43.50445 | 15.73187 | 20105 ft | 363 kts | 272° |
| 2026-05-07 19:24 | 43.50622 | 15.69705 | 20694 ft | 365 kts | 271° |
| 2026-05-07 19:25 | 43.50794 | 15.66249 | 21271 ft | 368 kts | 271° |
| 2026-05-07 19:25 | 43.50972 | 15.62718 | 21853 ft | 370 kts | 271° |
| 2026-05-07 19:25 | 43.51153 | 15.59166 | 22412 ft | 373 kts | 271° |
| 2026-05-07 19:25 | 43.51336 | 15.55592 | 22966 ft | 375 kts | 271° |
| 2026-05-07 19:26 | 43.51519 | 15.51997 | 23517 ft | 377 kts | 271° |
| 2026-05-07 19:26 | 43.51699 | 15.48384 | 23963 ft | 379 kts | 271° |
| 2026-05-07 19:26 | 43.51877 | 15.44743 | 24417 ft | 380 kts | 271° |
| 2026-05-07 19:26 | 43.52052 | 15.41096 | 24865 ft | 381 kts | 271° |
| 2026-05-07 19:27 | 43.52227 | 15.37451 | 25308 ft | 382 kts | 271° |
| 2026-05-07 19:27 | 43.52404 | 15.33790 | 25736 ft | 383 kts | 272° |
| 2026-05-07 19:27 | 43.52581 | 15.30112 | 26160 ft | 384 kts | 272° |
| 2026-05-07 19:27 | 43.52755 | 15.26436 | 26611 ft | 385 kts | 272° |
| 2026-05-07 19:28 | 43.52926 | 15.22800 | 27022 ft | 386 kts | 272° |
| 2026-05-07 19:28 | 43.53099 | 15.19105 | 27428 ft | 387 kts | 272° |
| 2026-05-07 19:28 | 43.53271 | 15.15400 | 27821 ft | 388 kts | 272° |
| 2026-05-07 19:28 | 43.53443 | 15.11687 | 28221 ft | 389 kts | 272° |
| 2026-05-07 19:29 | 43.53615 | 15.07965 | 28597 ft | 390 kts | 272° |
| 2026-05-07 19:29 | 43.53787 | 15.04230 | 28955 ft | 391 kts | 272° |
| 2026-05-07 19:29 | 43.53958 | 15.00480 | 29309 ft | 392 kts | 272° |
| 2026-05-07 19:29 | 43.54126 | 14.96722 | 29651 ft | 393 kts | 272° |
| 2026-05-07 19:30 | 43.54292 | 14.92950 | 29986 ft | 394 kts | 272° |
| 2026-05-07 19:30 | 43.54460 | 14.89179 | 30287 ft | 395 kts | 272° |
| 2026-05-07 19:30 | 43.54573 | 14.86671 | 30460 ft | 395 kts | 272° |
| 2026-05-07 19:30 | 43.54740 | 14.82886 | 30722 ft | 396 kts | 272° |
| 2026-05-07 19:31 | 43.54905 | 14.79092 | 30967 ft | 397 kts | 272° |
| 2026-05-07 19:31 | 43.55067 | 14.75293 | 31272 ft | 396 kts | 272° |
| 2026-05-07 19:31 | 43.55277 | 14.70290 | 31712 ft | 393 kts | 271° |
| 2026-05-07 19:31 | 43.55434 | 14.66534 | 32049 ft | 392 kts | 271° |
| 2026-05-07 19:32 | 43.55541 | 14.64000 | 32271 ft | 391 kts | 271° |
| 2026-05-07 19:32 | 43.55700 | 14.60265 | 32613 ft | 389 kts | 271° |
| 2026-05-07 19:32 | 43.55854 | 14.56590 | 32949 ft | 387 kts | 271° |
| 2026-05-07 19:32 | 43.56008 | 14.52891 | 33288 ft | 386 kts | 270° |
| 2026-05-07 19:33 | 43.56157 | 14.49211 | 33624 ft | 384 kts | 270° |
| 2026-05-07 19:33 | 43.56304 | 14.45536 | 33952 ft | 383 kts | 270° |
| 2026-05-07 19:33 | 43.56459 | 14.38265 | 34034 ft | 376 kts | 267° |
| 2026-05-07 19:34 | 43.56322 | 14.31085 | 34031 ft | 374 kts | 265° |
| 2026-05-07 19:34 | 43.56131 | 14.23918 | 34031 ft | 374 kts | 266° |
| 2026-05-07 19:35 | 43.55979 | 14.16786 | 34031 ft | 375 kts | 266° |
| 2026-05-07 19:35 | 43.55850 | 14.09578 | 34034 ft | 376 kts | 266° |
| 2026-05-07 19:36 | 43.55722 | 14.02365 | 34032 ft | 376 kts | 266° |
| 2026-05-07 19:36 | 43.55585 | 13.95159 | 34020 ft | 375 kts | 266° |
| 2026-05-07 19:37 | 43.55444 | 13.87981 | 34032 ft | 374 kts | 266° |
| 2026-05-07 19:37 | 43.55294 | 13.80814 | 34045 ft | 374 kts | 266° |
| 2026-05-07 19:38 | 43.55138 | 13.73685 | 34034 ft | 374 kts | 266° |
| 2026-05-07 19:38 | 43.54979 | 13.66505 | 34031 ft | 374 kts | 266° |
| 2026-05-07 19:39 | 43.54818 | 13.59329 | 34025 ft | 375 kts | 266° |
| 2026-05-07 19:39 | 43.54653 | 13.52153 | 34025 ft | 374 kts | 266° |
| 2026-05-07 19:40 | 43.54483 | 13.44974 | 34042 ft | 375 kts | 266° |
| 2026-05-07 19:40 | 43.54304 | 13.37783 | 34034 ft | 375 kts | 266° |
| 2026-05-07 19:41 | 43.54126 | 13.30598 | 34029 ft | 375 kts | 266° |
| 2026-05-07 19:41 | 43.53947 | 13.23462 | 34026 ft | 375 kts | 266° |
| 2026-05-07 19:42 | 43.53756 | 13.16273 | 34020 ft | 375 kts | 266° |
| 2026-05-07 19:42 | 43.53561 | 13.09084 | 34042 ft | 375 kts | 266° |
| 2026-05-07 19:43 | 43.53365 | 13.01897 | 34026 ft | 375 kts | 266° |
| 2026-05-07 19:43 | 43.53164 | 12.94709 | 34022 ft | 375 kts | 266° |
| 2026-05-07 19:44 | 43.52955 | 12.87527 | 34015 ft | 375 kts | 266° |
| 2026-05-07 19:44 | 43.52747 | 12.80386 | 34017 ft | 375 kts | 266° |
| 2026-05-07 19:45 | 43.52529 | 12.73213 | 34015 ft | 374 kts | 266° |
| 2026-05-07 19:45 | 43.52311 | 12.66034 | 34016 ft | 374 kts | 266° |
| 2026-05-07 19:46 | 43.52087 | 12.58879 | 34013 ft | 374 kts | 265° |
| 2026-05-07 19:46 | 43.51859 | 12.51773 | 34014 ft | 373 kts | 265° |
| 2026-05-07 19:47 | 43.51627 | 12.44634 | 34009 ft | 373 kts | 265° |
| 2026-05-07 19:47 | 43.51389 | 12.37503 | 34012 ft | 373 kts | 265° |
| 2026-05-07 19:48 | 43.51152 | 12.30362 | 34006 ft | 373 kts | 265° |
| 2026-05-07 19:48 | 43.50907 | 12.23229 | 34008 ft | 373 kts | 265° |
| 2026-05-07 19:49 | 43.50654 | 12.16093 | 34005 ft | 373 kts | 265° |
| 2026-05-07 19:49 | 43.50399 | 12.09010 | 34005 ft | 373 kts | 265° |
| 2026-05-07 19:50 | 43.50143 | 12.01870 | 34016 ft | 373 kts | 265° |
| 2026-05-07 19:50 | 43.49884 | 11.94734 | 34011 ft | 373 kts | 265° |
| 2026-05-07 19:51 | 43.49611 | 11.87587 | 34017 ft | 373 kts | 265° |
| 2026-05-07 19:51 | 43.49333 | 11.80451 | 34019 ft | 373 kts | 265° |
| 2026-05-07 19:52 | 43.49057 | 11.73314 | 34025 ft | 373 kts | 265° |
| 2026-05-07 19:52 | 43.48780 | 11.66213 | 34037 ft | 373 kts | 264° |
| 2026-05-07 19:53 | 43.48493 | 11.59071 | 34041 ft | 374 kts | 264° |
| 2026-05-07 19:53 | 43.48204 | 11.51908 | 34035 ft | 374 kts | 264° |
| 2026-05-07 19:54 | 43.47907 | 11.44756 | 34043 ft | 374 kts | 264° |
| 2026-05-07 19:54 | 43.47629 | 11.37600 | 34042 ft | 374 kts | 265° |
| 2026-05-07 19:55 | 43.47450 | 11.30444 | 34051 ft | 374 kts | 265° |
| 2026-05-07 19:55 | 43.47287 | 11.23282 | 34031 ft | 374 kts | 265° |
| 2026-05-07 19:56 | 43.47100 | 11.16165 | 34040 ft | 374 kts | 265° |
| 2026-05-07 19:56 | 43.46898 | 11.08992 | 34042 ft | 375 kts | 265° |
| 2026-05-07 19:57 | 43.46688 | 11.01813 | 34045 ft | 376 kts | 265° |
| 2026-05-07 19:57 | 43.46469 | 10.94608 | 34059 ft | 376 kts | 265° |
| 2026-05-07 19:58 | 43.46253 | 10.87411 | 34064 ft | 376 kts | 265° |
| 2026-05-07 19:58 | 43.46040 | 10.80212 | 34063 ft | 376 kts | 265° |
| 2026-05-07 19:59 | 43.45818 | 10.73015 | 34064 ft | 376 kts | 265° |
| 2026-05-07 19:59 | 43.45587 | 10.65831 | 34036 ft | 376 kts | 265° |
| 2026-05-07 20:00 | 43.45356 | 10.58704 | 34037 ft | 375 kts | 264° |
| 2026-05-07 20:00 | 43.45113 | 10.51524 | 34020 ft | 375 kts | 264° |
| 2026-05-07 20:01 | 43.44871 | 10.44335 | 34018 ft | 375 kts | 264° |
| 2026-05-07 20:01 | 43.44626 | 10.37152 | 34006 ft | 376 kts | 264° |
| 2026-05-07 20:02 | 43.44376 | 10.30018 | 34004 ft | 375 kts | 264° |
| 2026-05-07 20:02 | 43.44124 | 10.22833 | 34003 ft | 376 kts | 264° |
| 2026-05-07 20:03 | 43.43859 | 10.15649 | 34009 ft | 376 kts | 264° |
| 2026-05-07 20:03 | 43.43585 | 10.08447 | 33633 ft | 378 kts | 264° |
| 2026-05-07 20:04 | 43.43450 | 10.04835 | 33152 ft | 379 kts | 264° |
| 2026-05-07 20:04 | 43.43313 | 10.01201 | 32668 ft | 381 kts | 264° |
| 2026-05-07 20:04 | 43.43172 | 9.97555 | 32200 ft | 383 kts | 264° |
| 2026-05-07 20:04 | 43.43028 | 9.93887 | 31738 ft | 384 kts | 265° |
| 2026-05-07 20:05 | 43.42889 | 9.90213 | 31281 ft | 383 kts | 265° |
| 2026-05-07 20:05 | 43.42752 | 9.86606 | 30844 ft | 382 kts | 265° |
| 2026-05-07 20:05 | 43.42609 | 9.82966 | 30447 ft | 380 kts | 265° |
| 2026-05-07 20:05 | 43.42464 | 9.79322 | 30027 ft | 380 kts | 265° |
| 2026-05-07 20:06 | 43.42319 | 9.75707 | 29544 ft | 378 kts | 265° |
| 2026-05-07 20:06 | 43.42172 | 9.72096 | 29070 ft | 377 kts | 265° |
| 2026-05-07 20:06 | 43.42025 | 9.68500 | 28595 ft | 376 kts | 265° |
| 2026-05-07 20:06 | 43.41880 | 9.64904 | 28126 ft | 376 kts | 265° |
| 2026-05-07 20:07 | 43.41734 | 9.61316 | 27676 ft | 376 kts | 265° |
| 2026-05-07 20:07 | 43.41586 | 9.57729 | 27234 ft | 375 kts | 265° |
| 2026-05-07 20:07 | 43.41437 | 9.54153 | 26798 ft | 374 kts | 265° |
| 2026-05-07 20:07 | 43.41288 | 9.50585 | 26369 ft | 373 kts | 265° |
| 2026-05-07 20:08 | 43.41137 | 9.47025 | 25948 ft | 372 kts | 265° |
| 2026-05-07 20:08 | 43.40984 | 9.43473 | 25541 ft | 372 kts | 265° |
| 2026-05-07 20:08 | 43.40829 | 9.39928 | 25130 ft | 371 kts | 265° |
| 2026-05-07 20:08 | 43.40676 | 9.36433 | 24729 ft | 370 kts | 265° |
| 2026-05-07 20:09 | 43.40519 | 9.32902 | 24329 ft | 370 kts | 265° |
| 2026-05-07 20:09 | 43.40360 | 9.29371 | 23935 ft | 369 kts | 265° |
| 2026-05-07 20:09 | 43.40204 | 9.25847 | 23537 ft | 369 kts | 265° |
| 2026-05-07 20:10 | 43.39891 | 9.18828 | 22610 ft | 366 kts | 265° |
| 2026-05-07 20:10 | 43.39732 | 9.15338 | 22156 ft | 364 kts | 265° |
| 2026-05-07 20:10 | 43.39572 | 9.11862 | 21709 ft | 363 kts | 265° |
| 2026-05-07 20:10 | 43.39417 | 9.08454 | 21284 ft | 361 kts | 265° |
| 2026-05-07 20:11 | 43.39259 | 9.05014 | 20853 ft | 360 kts | 265° |
| 2026-05-07 20:11 | 43.39127 | 9.01574 | 20423 ft | 359 kts | 269° |
| 2026-05-07 20:11 | 43.39158 | 8.98146 | 20004 ft | 358 kts | 270° |
| 2026-05-07 20:11 | 43.39237 | 8.94726 | 19589 ft | 357 kts | 271° |
| 2026-05-07 20:12 | 43.39339 | 8.91316 | 19176 ft | 356 kts | 271° |
| 2026-05-07 20:12 | 43.39442 | 8.87919 | 18772 ft | 355 kts | 271° |
| 2026-05-07 20:12 | 43.39541 | 8.84528 | 18373 ft | 354 kts | 271° |
| 2026-05-07 20:12 | 43.39635 | 8.81157 | 17926 ft | 352 kts | 271° |
| 2026-05-07 20:13 | 43.39722 | 8.77833 | 17477 ft | 351 kts | 271° |
| 2026-05-07 20:13 | 43.39804 | 8.74490 | 17025 ft | 349 kts | 270° |
| 2026-05-07 20:13 | 43.39882 | 8.71155 | 16598 ft | 348 kts | 270° |
| 2026-05-07 20:13 | 43.39956 | 8.67834 | 16164 ft | 347 kts | 270° |
| 2026-05-07 20:14 | 43.40030 | 8.64522 | 15735 ft | 346 kts | 270° |
| 2026-05-07 20:14 | 43.40106 | 8.61214 | 15310 ft | 345 kts | 270° |
| 2026-05-07 20:14 | 43.40182 | 8.57923 | 14893 ft | 343 kts | 270° |
| 2026-05-07 20:14 | 43.40255 | 8.54646 | 14482 ft | 342 kts | 270° |
| 2026-05-07 20:15 | 43.40327 | 8.51381 | 14108 ft | 341 kts | 270° |
| 2026-05-07 20:15 | 43.40398 | 8.48127 | 13993 ft | 340 kts | 270° |
| 2026-05-07 20:15 | 43.40468 | 8.44868 | 14014 ft | 341 kts | 270° |
| 2026-05-07 20:15 | 43.40534 | 8.41602 | 14016 ft | 342 kts | 270° |
| 2026-05-07 20:16 | 43.40598 | 8.38336 | 14015 ft | 342 kts | 270° |
| 2026-05-07 20:16 | 43.40662 | 8.35105 | 14013 ft | 342 kts | 270° |
| 2026-05-07 20:16 | 43.40727 | 8.31838 | 14013 ft | 342 kts | 270° |
| 2026-05-07 20:16 | 43.40794 | 8.28565 | 13910 ft | 343 kts | 270° |
| 2026-05-07 20:17 | 43.40860 | 8.25295 | 13678 ft | 341 kts | 270° |
| 2026-05-07 20:17 | 43.40926 | 8.22040 | 13411 ft | 340 kts | 270° |
| 2026-05-07 20:17 | 43.40989 | 8.18790 | 13144 ft | 339 kts | 270° |
| 2026-05-07 20:17 | 43.41050 | 8.15558 | 12882 ft | 337 kts | 270° |
| 2026-05-07 20:18 | 43.41109 | 8.12337 | 12621 ft | 336 kts | 270° |
| 2026-05-07 20:18 | 43.41166 | 8.09129 | 12365 ft | 335 kts | 270° |
| 2026-05-07 20:18 | 43.41202 | 8.07010 | 12196 ft | 334 kts | 270° |
| 2026-05-07 20:18 | 43.41256 | 8.03808 | 11941 ft | 333 kts | 270° |
| 2026-05-07 20:19 | 43.41311 | 8.00630 | 11684 ft | 332 kts | 270° |
| 2026-05-07 20:19 | 43.41366 | 7.97460 | 11435 ft | 331 kts | 270° |
| 2026-05-07 20:19 | 43.41421 | 7.94298 | 11190 ft | 330 kts | 270° |
| 2026-05-07 20:19 | 43.41474 | 7.91146 | 10943 ft | 329 kts | 270° |
| 2026-05-07 20:20 | 43.41527 | 7.87997 | 10698 ft | 329 kts | 270° |
| 2026-05-07 20:20 | 43.41579 | 7.84857 | 10455 ft | 328 kts | 270° |
| 2026-05-07 20:20 | 43.41626 | 7.81728 | 10214 ft | 327 kts | 270° |
| 2026-05-07 20:20 | 43.41673 | 7.78646 | 9977 ft | 324 kts | 270° |
| 2026-05-07 20:21 | 43.41719 | 7.75627 | 9832 ft | 300 kts | 271° |
| 2026-05-07 20:21 | 43.41762 | 7.72822 | 9704 ft | 294 kts | 270° |
| 2026-05-07 20:21 | 43.41803 | 7.70026 | 9567 ft | 292 kts | 270° |
| 2026-05-07 20:21 | 43.41843 | 7.67235 | 9440 ft | 291 kts | 271° |
| 2026-05-07 20:22 | 43.41883 | 7.64458 | 9305 ft | 290 kts | 270° |
| 2026-05-07 20:22 | 43.41922 | 7.61684 | 9174 ft | 290 kts | 270° |
| 2026-05-07 20:22 | 43.41959 | 7.58910 | 9045 ft | 289 kts | 270° |
| 2026-05-07 20:22 | 43.41996 | 7.56147 | 8912 ft | 289 kts | 271° |
| 2026-05-07 20:23 | 43.42034 | 7.53388 | 8783 ft | 289 kts | 271° |
| 2026-05-07 20:23 | 43.42072 | 7.50630 | 8655 ft | 288 kts | 271° |
| 2026-05-07 20:23 | 43.42109 | 7.47871 | 8307 ft | 290 kts | 271° |
| 2026-05-07 20:23 | 43.42145 | 7.45074 | 7737 ft | 294 kts | 271° |
| 2026-05-07 20:24 | 43.42181 | 7.42242 | 7155 ft | 298 kts | 271° |
| 2026-05-07 20:24 | 43.42218 | 7.39409 | 6567 ft | 302 kts | 271° |
| 2026-05-07 20:24 | 43.42252 | 7.36521 | 5940 ft | 298 kts | 271° |
| 2026-05-07 20:24 | 43.42283 | 7.33722 | 5348 ft | 287 kts | 270° |
| 2026-05-07 20:25 | 43.42311 | 7.31017 | 4801 ft | 278 kts | 270° |
| 2026-05-07 20:25 | 43.42339 | 7.28439 | 4532 ft | 257 kts | 270° |
| 2026-05-07 20:25 | 43.42364 | 7.26077 | 4472 ft | 238 kts | 270° |
| 2026-05-07 20:25 | 43.42454 | 7.23872 | 4413 ft | 225 kts | 280° |
| 2026-05-07 20:26 | 43.42938 | 7.21882 | 4336 ft | 214 kts | 297° |
| 2026-05-07 20:26 | 43.43754 | 7.20263 | 4247 ft | 205 kts | 311° |
| 2026-05-07 20:26 | 43.44689 | 7.18803 | 4160 ft | 202 kts | 311° |
| 2026-05-07 20:26 | 43.45641 | 7.17384 | 4061 ft | 201 kts | 321° |
| 2026-05-07 20:27 | 43.46851 | 7.16440 | 3960 ft | 201 kts | 342° |
| 2026-05-07 20:27 | 43.48242 | 7.16139 | 3635 ft | 203 kts | 357° |
| 2026-05-07 20:27 | 43.49665 | 7.16015 | 3337 ft | 205 kts | 357° |
| 2026-05-07 20:27 | 43.51091 | 7.15884 | 3085 ft | 203 kts | 356° |
| 2026-05-07 20:28 | 43.52452 | 7.15756 | 2994 ft | 189 kts | 356° |
| 2026-05-07 20:28 | 43.53702 | 7.15636 | 2948 ft | 173 kts | 356° |
| 2026-05-07 20:28 | 43.54886 | 7.15466 | 2712 ft | 169 kts | 353° |
| 2026-05-07 20:28 | 43.56017 | 7.15235 | 2412 ft | 163 kts | 352° |
| 2026-05-07 20:29 | 43.57134 | 7.14962 | 2084 ft | 158 kts | 351° |
| 2026-05-07 20:29 | 43.58168 | 7.14715 | 1908 ft | 146 kts | 351° |
| 2026-05-07 20:29 | 43.59149 | 7.14538 | 1732 ft | 142 kts | 356° |
| 2026-05-07 20:29 | 43.60126 | 7.14515 | 1540 ft | 140 kts | 6° |
| 2026-05-07 20:30 | 43.61055 | 7.14877 | 1237 ft | 140 kts | 29° |
| 2026-05-07 20:30 | 43.61822 | 7.15699 | 917 ft | 138 kts | 47° |
| 2026-05-07 20:30 | 43.62472 | 7.16657 | 766 ft | 136 kts | 48° |
| 2026-05-07 20:30 | 43.63124 | 7.17597 | 665 ft | 136 kts | 44° |
| 2026-05-07 20:31 | 43.63809 | 7.18491 | 522 ft | 135 kts | 45° |
| 2026-05-07 20:31 | 43.64464 | 7.19420 | 328 ft | 134 kts | 46° |
| 2026-05-07 20:31 | 43.65128 | 7.20325 | 95 ft | 134 kts | 44° |
| 2026-05-07 20:31 | 43.65748 | 7.21183 | 23 ft | 106 kts | 45° |
| 2026-05-07 20:32 | 43.66109 | 7.21683 | 21 ft | 24 kts | 45° |
| 2026-05-07 20:32 | 43.66201 | 7.21751 | 21 ft | 12 kts | 352° |
| 2026-05-07 20:32 | 43.66253 | 7.21697 | 21 ft | 7 kts | 315° |
| 2026-05-07 20:32 | 43.66263 | 7.21684 | 21 ft | 0 kts | 315° |
| 2026-05-07 20:33 | 43.66268 | 7.21678 | 21 ft | 7 kts | 315° |
| 2026-05-07 20:34 | 43.66326 | 7.21598 | 21 ft | 11 kts | 315° |
| 2026-05-07 20:34 | 43.66379 | 7.21537 | 21 ft | 9 kts | 337° |
| 2026-05-07 20:34 | 43.66433 | 7.21560 | 21 ft | 8 kts | 38° |
| 2026-05-07 20:34 | 43.66449 | 7.21582 | 22 ft | 0 kts | 46° |
| 2026-05-07 20:35 | 43.66455 | 7.21590 | 21 ft | 2 kts | 46° |
| 2026-05-07 20:35 | 43.66465 | 7.21605 | 21 ft | 2 kts | 49° |
| 2026-05-07 20:35 | 43.66473 | 7.21618 | 21 ft | 4 kts | 49° |
| 2026-05-07 20:35 | 43.66514 | 7.21680 | 21 ft | 14 kts | 47° |
| 2026-05-07 20:36 | 43.66548 | 7.21732 | 21 ft | 3 kts | 45° |
| 2026-05-07 20:36 | 43.66569 | 7.21758 | 21 ft | 1 kts | 41° |
| 2026-05-07 20:36 | 43.66572 | 7.21761 | 21 ft | 0 kts | 41° |
| 2026-05-07 20:36 | 43.66586 | 7.21771 | 0 ft | 8 kts | 15° |
| 2026-05-07 20:37 | 43.66612 | 7.21702 | 21 ft | 9 kts | 274° |
| 2026-05-07 20:37 | 43.66612 | 7.21641 | 21 ft | 0 kts | 271° |
| 2026-05-07 20:41 | 43.66612 | 7.21640 | 21 ft | 0 kts | 272° |